Plevna, Montana
Current Conditions -  °F | °C
As of 12:51 PM on Sunday 23 Nov 2014 (Local Time) from KBHK Reporting Station
Overcast Overcast  
Wind Chill: -11°   Ceiling: 2400
Heat Index: -2°   Visibility: 10mi
Dew Point: -8°   Wind: 30mph
Humidity: 66%   Direction: 310°NW
Pressure: 29.73"   Gusts: 40mph
Location:  46.42°N, 104.52°W
Report Text: KBHK 231951Z AUTO 31026G35KT 10SM BKN024 OVC033 M02/M08 A2973 RMK AO2 PK WND 30038/1923 SLP091 T10221078
Loading
Personal Weather Stations






























Interactive Weather Map New forecast layout! Learn more

10-Day Weather Forecast

Advertisements
Track Severe Weather on mobile